Time;durP1;ratioP1;P1;durP2;ratioP2;P2;SDS_P1;SDS_P2;PMS_P1;PMS_P2;Temp;Humidity;BMP_temperature;BMP_pressure;BME280_temperature;BME280_humidity;BME280_pressure;Samples;Min_cycle;Max_cycle;Signal;HPM_P1;HPM_P2
2024/01/23 00:00:37;;;;;;;22.17;3.97;;;8.00;99.90;;;;;;5007020;28;20384;-51
2024/01/23 00:03:03;;;;;;;16.48;2.38;;;7.90;99.90;;;;;;5004735;28;20032;-50
2024/01/23 00:05:28;;;;;;;15.32;3.10;;;7.90;99.90;;;;;;5005505;28;21427;-49
2024/01/23 00:07:54;;;;;;;19.38;3.17;;;7.90;99.90;;;;;;5005752;28;20273;-48
2024/01/23 00:10:22;;;;;;;20.85;3.13;;;7.90;99.90;;;;;;5005022;28;20030;-51
2024/01/23 00:12:48;;;;;;;12.82;2.22;;;7.80;99.90;;;;;;5007948;28;20036;-49
2024/01/23 00:15:14;;;;;;;14.70;2.38;;;7.80;99.90;;;;;;5005854;28;20099;-49
2024/01/23 00:17:39;;;;;;;10.55;2.40;;;7.80;99.90;;;;;;5007017;28;20512;-48
2024/01/23 00:20:06;;;;;;;17.67;4.47;;;7.90;99.90;;;;;;5004987;28;20034;-51
2024/01/23 00:22:31;;;;;;;19.05;2.13;;;7.90;99.90;;;;;;5005996;28;20049;-48
2024/01/23 00:24:57;;;;;;;17.77;3.08;;;7.90;99.90;;;;;;5006811;28;20030;-49
2024/01/23 00:27:22;;;;;;;18.02;2.70;;;7.80;99.90;;;;;;5004311;28;20467;-49
2024/01/23 00:29:48;;;;;;;24.75;3.05;;;7.80;99.90;;;;;;5005853;28;20049;-48
2024/01/23 00:32:13;;;;;;;16.58;2.97;;;7.70;99.90;;;;;;5006143;28;20536;-50
2024/01/23 00:34:39;;;;;;;13.57;2.40;;;7.60;99.90;;;;;;5006963;28;20037;-48
2024/01/23 00:37:05;;;;;;;19.05;2.97;;;7.50;99.90;;;;;;5003951;28;20057;-49
2024/01/23 00:39:30;;;;;;;22.52;2.70;;;7.50;99.90;;;;;;5006828;28;20522;-49
2024/01/23 00:41:56;;;;;;;14.98;2.08;;;7.50;99.90;;;;;;5008564;28;20117;-48
2024/01/23 00:44:22;;;;;;;19.25;2.50;;;7.50;99.90;;;;;;5008896;28;20069;-49
2024/01/23 00:46:47;;;;;;;19.48;3.10;;;7.50;99.90;;;;;;5011759;28;21404;-48
2024/01/23 00:49:13;;;;;;;17.67;3.17;;;7.50;99.90;;;;;;5008105;28;20041;-49
2024/01/23 00:51:38;;;;;;;15.05;2.72;;;7.60;99.90;;;;;;5007569;28;20124;-48
2024/01/23 00:54:04;;;;;;;15.02;2.47;;;7.60;99.90;;;;;;5011446;28;20041;-49
2024/01/23 00:56:29;;;;;;;14.45;2.35;;;7.60;99.90;;;;;;5011505;28;20030;-48
2024/01/23 00:58:55;;;;;;;25.08;2.65;;;7.60;99.90;;;;;;5010493;28;20088;-49
2024/01/23 01:01:20;;;;;;;27.88;2.78;;;7.60;99.90;;;;;;5010797;28;20034;-49
2024/01/23 01:03:46;;;;;;;15.38;2.38;;;7.60;99.90;;;;;;5007199;28;20069;-49
2024/01/23 01:06:12;;;;;;;12.07;1.95;;;7.70;99.90;;;;;;5007015;28;20037;-48
2024/01/23 01:08:37;;;;;;;15.48;2.95;;;7.70;99.90;;;;;;5009555;28;20026;-49
2024/01/23 01:11:04;;;;;;;19.52;2.83;;;7.60;99.90;;;;;;5008387;28;20030;-49
2024/01/23 01:13:30;;;;;;;16.95;2.50;;;7.60;99.90;;;;;;5006226;28;20035;-48
2024/01/23 01:15:55;;;;;;;11.27;2.38;;;7.60;99.90;;;;;;5010961;28;20029;-49
2024/01/23 01:18:21;;;;;;;29.05;3.60;;;7.40;99.90;;;;;;5011292;28;20022;-48
2024/01/23 01:20:48;;;;;;;23.13;3.35;;;7.40;99.90;;;;;;5008838;28;20036;-48
2024/01/23 01:23:15;;;;;;;18.45;2.58;;;7.30;99.90;;;;;;5011592;28;20072;-48
2024/01/23 01:25:43;;;;;;;20.27;2.35;;;7.30;99.90;;;;;;5008566;28;20026;-48
2024/01/23 01:28:08;;;;;;;12.23;2.67;;;7.30;99.90;;;;;;4971419;28;20072;-50
2024/01/23 01:30:34;;;;;;;11.82;2.85;;;7.30;99.90;;;;;;5012129;28;20054;-48
2024/01/23 01:33:00;;;;;;;18.40;4.00;;;7.30;99.90;;;;;;5008670;28;20049;-51
2024/01/23 01:35:25;;;;;;;15.90;2.45;;;7.30;99.90;;;;;;5007445;28;20573;-50
2024/01/23 01:37:51;;;;;;;23.85;3.05;;;7.30;99.90;;;;;;5009872;28;20030;-49
2024/01/23 01:40:16;;;;;;;16.92;3.30;;;7.30;99.90;;;;;;5011805;28;20029;-49
2024/01/23 01:42:42;;;;;;;13.82;2.15;;;7.30;99.90;;;;;;5003757;28;20030;-48
2024/01/23 01:45:12;;;;;;;20.17;2.65;;;7.20;99.90;;;;;;5009605;28;20092;-48
2024/01/23 01:47:41;;;;;;;14.70;2.75;;;7.20;99.90;;;;;;5008458;28;20037;-49
2024/01/23 01:50:08;;;;;;;23.73;4.55;;;7.10;99.90;;;;;;5010106;28;20061;-49
2024/01/23 01:52:37;;;;;;;23.13;3.97;;;7.00;99.90;;;;;;5008281;28;20026;-50
2024/01/23 01:55:04;;;;;;;14.90;2.35;;;6.90;99.90;;;;;;4990870;28;20496;-49
2024/01/23 01:57:33;;;;;;;19.20;2.22;;;6.90;99.90;;;;;;5007503;28;20034;-48
2024/01/23 01:59:59;;;;;;;13.45;3.03;;;6.80;99.90;;;;;;5001226;28;20041;-51
2024/01/23 02:02:26;;;;;;;21.10;3.63;;;6.80;99.90;;;;;;5010022;28;20030;-49
2024/01/23 02:04:52;;;;;;;22.00;4.13;;;6.80;99.90;;;;;;5003233;28;20034;-49
2024/01/23 02:07:18;;;;;;;10.95;2.05;;;6.70;99.90;;;;;;5004916;28;20034;-49
2024/01/23 02:09:43;;;;;;;20.83;2.03;;;6.60;99.90;;;;;;5007943;28;20404;-49
2024/01/23 02:12:09;;;;;;;18.55;2.30;;;6.50;99.90;;;;;;5010390;28;20101;-48
2024/01/23 02:14:35;;;;;;;16.52;2.42;;;6.50;99.90;;;;;;5005753;28;20503;-47
2024/01/23 02:17:00;;;;;;;25.27;3.45;;;6.50;99.90;;;;;;5010054;28;20030;-49
2024/01/23 02:19:26;;;;;;;18.95;3.00;;;6.40;99.90;;;;;;5006695;28;20574;-50
2024/01/23 02:21:53;;;;;;;8.07;1.60;;;6.10;99.90;;;;;;5004735;28;20036;-47
2024/01/23 02:24:19;;;;;;;14.13;2.05;;;5.80;99.90;;;;;;5006383;28;20090;-47
2024/01/23 02:26:44;;;;;;;12.60;2.50;;;5.60;99.90;;;;;;5004688;28;20105;-48
2024/01/23 02:29:11;;;;;;;18.67;1.77;;;5.30;99.90;;;;;;5006178;28;20053;-47
2024/01/23 02:31:36;;;;;;;10.10;2.17;;;5.10;99.90;;;;;;5003845;28;20085;-48
2024/01/23 02:34:02;;;;;;;13.73;2.53;;;5.10;99.90;;;;;;5004985;28;20188;-49
2024/01/23 02:36:28;;;;;;;15.70;2.65;;;5.10;99.90;;;;;;5003757;28;20030;-48
2024/01/23 02:38:53;;;;;;;17.15;2.03;;;5.00;99.90;;;;;;5003260;28;20030;-47
2024/01/23 02:41:19;;;;;;;19.30;2.53;;;5.00;99.90;;;;;;5009918;28;20037;-48
2024/01/23 02:43:45;;;;;;;14.25;2.42;;;5.10;99.90;;;;;;5004453;28;20105;-49
2024/01/23 02:46:10;;;;;;;21.67;2.63;;;5.00;99.90;;;;;;5004466;28;20022;-48
2024/01/23 02:48:36;;;;;;;19.95;4.03;;;5.00;99.90;;;;;;5000834;28;20030;-47
2024/01/23 02:51:02;;;;;;;23.88;2.85;;;5.00;99.90;;;;;;4978426;28;20115;-48
2024/01/23 02:53:27;;;;;;;19.02;3.03;;;4.90;99.90;;;;;;5003754;28;20088;-50
2024/01/23 02:55:53;;;;;;;14.88;2.75;;;4.90;99.90;;;;;;5001370;28;20061;-48
2024/01/23 02:58:21;;;;;;;21.42;3.92;;;5.00;99.90;;;;;;5001036;28;20019;-48
2024/01/23 03:00:47;;;;;;;15.15;2.47;;;5.10;99.90;;;;;;5003746;28;20045;-49
2024/01/23 03:03:12;;;;;;;34.90;3.80;;;5.10;99.90;;;;;;4997396;28;20572;-48
2024/01/23 03:05:38;;;;;;;21.63;4.15;;;5.10;99.90;;;;;;4979347;28;20080;-48
2024/01/23 03:08:04;;;;;;;32.30;3.70;;;5.10;99.90;;;;;;5004333;28;20054;-49
2024/01/23 03:10:30;;;;;;;26.33;4.55;;;5.10;99.90;;;;;;5006361;28;20029;-47
2024/01/23 03:12:56;;;;;;;26.85;4.18;;;5.20;99.90;;;;;;5006052;28;20128;-48
2024/01/23 03:15:22;;;;;;;24.23;3.45;;;5.20;99.90;;;;;;5007934;28;20157;-48
2024/01/23 03:17:47;;;;;;;24.95;4.43;;;5.20;99.90;;;;;;5005218;28;20121;-49
2024/01/23 03:20:13;;;;;;;17.75;3.65;;;5.30;99.90;;;;;;5007010;28;20204;-48
2024/01/23 03:22:38;;;;;;;13.90;2.78;;;5.30;99.90;;;;;;5006812;28;20040;-48
2024/01/23 03:25:05;;;;;;;37.15;4.93;;;5.40;99.90;;;;;;5005765;28;20018;-48
2024/01/23 03:27:31;;;;;;;26.27;2.88;;;5.40;99.90;;;;;;5008464;28;20084;-49
2024/01/23 03:29:57;;;;;;;33.67;3.85;;;5.40;99.90;;;;;;5007227;28;20033;-50
2024/01/23 03:32:22;;;;;;;19.15;4.15;;;5.40;99.90;;;;;;5006054;28;20081;-49
2024/01/23 03:34:49;;;;;;;28.70;3.30;;;5.40;99.90;;;;;;4998419;28;20041;-46
2024/01/23 03:37:15;;;;;;;21.73;2.80;;;5.40;99.90;;;;;;5005836;28;20369;-49
2024/01/23 03:39:41;;;;;;;19.23;2.35;;;5.50;99.90;;;;;;5006987;28;20042;-52
2024/01/23 03:42:06;;;;;;;23.38;3.75;;;5.50;99.90;;;;;;5008868;28;20459;-50
2024/01/23 03:44:32;;;;;;;17.02;3.90;;;5.50;99.90;;;;;;5009636;28;20026;-47
2024/01/23 03:46:58;;;;;;;18.77;2.00;;;5.50;99.90;;;;;;5008020;28;20488;-51
2024/01/23 03:49:24;;;;;;;20.30;2.55;;;5.50;99.90;;;;;;5005937;28;20030;-50
2024/01/23 03:51:50;;;;;;;18.00;3.85;;;5.50;99.90;;;;;;5005006;28;20029;-47
2024/01/23 03:54:16;;;;;;;18.65;4.18;;;5.60;99.90;;;;;;5005384;28;20053;-49
2024/01/23 03:56:42;;;;;;;18.83;2.92;;;5.60;99.90;;;;;;5009214;28;20038;-47
2024/01/23 03:59:07;;;;;;;15.98;2.20;;;5.70;99.90;;;;;;5009536;28;20022;-48
2024/01/23 04:01:33;;;;;;;25.00;4.30;;;5.70;99.90;;;;;;5009680;28;20423;-48
2024/01/23 04:03:59;;;;;;;18.15;3.78;;;5.70;99.90;;;;;;5001623;28;20037;-48
2024/01/23 04:06:25;;;;;;;20.10;3.65;;;5.70;99.90;;;;;;5007006;28;20026;-48
2024/01/23 04:08:50;;;;;;;20.33;2.50;;;5.80;99.90;;;;;;5001303;28;20373;-48
2024/01/23 04:11:16;;;;;;;16.75;2.60;;;5.80;99.90;;;;;;5008388;28;20041;-48
2024/01/23 04:13:41;;;;;;;23.55;2.90;;;5.80;99.90;;;;;;5007532;28;20041;-48
2024/01/23 04:16:07;;;;;;;23.52;2.90;;;5.80;99.90;;;;;;5008566;28;20480;-48
2024/01/23 04:18:33;;;;;;;26.60;3.53;;;5.90;99.90;;;;;;5005150;28;20026;-50
2024/01/23 04:20:59;;;;;;;25.95;4.88;;;5.90;99.90;;;;;;5006140;28;20065;-48
2024/01/23 04:23:25;;;;;;;17.02;4.07;;;6.00;99.90;;;;;;5008476;28;20037;-48
2024/01/23 04:25:50;;;;;;;13.18;2.50;;;6.00;99.90;;;;;;5006014;28;20030;-49
2024/01/23 04:28:16;;;;;;;26.58;3.33;;;6.00;99.90;;;;;;5006635;28;20022;-53
2024/01/23 04:30:42;;;;;;;28.83;3.95;;;6.10;99.90;;;;;;5005909;28;20026;-49
2024/01/23 04:33:08;;;;;;;20.73;3.42;;;6.10;99.90;;;;;;5008215;28;20093;-49
2024/01/23 04:35:34;;;;;;;21.63;3.35;;;6.00;99.90;;;;;;5008017;28;20045;-48
2024/01/23 04:38:00;;;;;;;23.35;3.92;;;6.00;99.90;;;;;;5010955;28;20480;-48
2024/01/23 04:40:25;;;;;;;22.50;3.45;;;6.00;99.90;;;;;;5008340;28;20053;-48
2024/01/23 04:42:51;;;;;;;18.17;3.92;;;6.00;99.90;;;;;;5010976;28;20033;-48
2024/01/23 04:45:16;;;;;;;19.27;4.35;;;6.10;99.90;;;;;;5008440;28;20034;-50
2024/01/23 04:47:42;;;;;;;11.20;2.88;;;6.10;99.90;;;;;;5003424;28;20045;-49
2024/01/23 04:50:08;;;;;;;31.52;3.58;;;6.10;99.90;;;;;;5004417;28;20037;-48
2024/01/23 04:52:34;;;;;;;24.67;4.90;;;6.10;99.90;;;;;;5009695;28;20034;-48
2024/01/23 04:55:00;;;;;;;21.73;2.63;;;6.10;99.90;;;;;;5005266;28;20064;-49
2024/01/23 04:57:31;;;;;;;11.82;2.30;;;6.10;99.90;;;;;;5009619;28;20037;-48
2024/01/23 05:00:00;;;;;;;21.63;3.45;;;6.10;99.90;;;;;;5011629;28;20428;-49
2024/01/23 05:02:26;;;;;;;33.13;4.15;;;6.10;99.90;;;;;;4991034;28;20033;-52
2024/01/23 05:04:52;;;;;;;14.02;2.47;;;6.20;99.90;;;;;;5008608;28;20049;-50
2024/01/23 05:07:18;;;;;;;25.60;3.63;;;6.20;99.90;;;;;;5009685;28;20022;-50
2024/01/23 05:09:44;;;;;;;19.15;3.47;;;6.20;99.90;;;;;;4960807;28;1380102;-49
2024/01/23 05:12:10;;;;;;;15.55;3.67;;;6.20;99.90;;;;;;5010854;28;20033;-48
2024/01/23 05:14:36;;;;;;;16.23;3.33;;;6.20;99.90;;;;;;5012488;28;20761;-50
2024/01/23 05:17:02;;;;;;;27.90;3.13;;;6.20;99.90;;;;;;5012082;28;20392;-48
2024/01/23 05:19:28;;;;;;;22.70;2.95;;;6.20;99.90;;;;;;5008446;28;20026;-51
2024/01/23 05:21:54;;;;;;;13.73;3.15;;;6.20;99.90;;;;;;5011025;28;20048;-49
2024/01/23 05:24:19;;;;;;;18.42;4.57;;;6.20;99.90;;;;;;5007103;28;20030;-48
2024/01/23 05:26:45;;;;;;;17.42;3.65;;;6.20;99.90;;;;;;5000530;28;20109;-49
2024/01/23 05:29:10;;;;;;;24.42;4.70;;;6.20;99.90;;;;;;5003906;28;20026;-50
2024/01/23 05:31:36;;;;;;;21.90;4.07;;;6.20;99.90;;;;;;5007299;28;20029;-48
2024/01/23 05:34:02;;;;;;;18.30;3.00;;;6.20;99.90;;;;;;5004491;28;20044;-51
2024/01/23 05:36:27;;;;;;;19.25;4.00;;;6.20;99.90;;;;;;5006071;28;20428;-48
2024/01/23 05:38:53;;;;;;;24.10;3.67;;;6.10;99.90;;;;;;5011028;28;20030;-47
2024/01/23 05:41:18;;;;;;;26.55;3.72;;;6.10;99.90;;;;;;5000702;28;20485;-49
2024/01/23 05:43:44;;;;;;;24.60;3.85;;;6.10;99.90;;;;;;5009776;28;20033;-48
2024/01/23 05:46:09;;;;;;;30.27;3.25;;;6.10;99.90;;;;;;5005971;28;20117;-48
2024/01/23 05:48:35;;;;;;;17.35;3.35;;;6.10;99.90;;;;;;5010075;28;20546;-48
2024/01/23 05:51:01;;;;;;;13.55;3.15;;;6.10;99.90;;;;;;5006609;28;20072;-48
2024/01/23 05:53:26;;;;;;;24.50;3.88;;;6.10;99.90;;;;;;5012998;28;20029;-49
2024/01/23 05:55:53;;;;;;;23.00;3.13;;;6.00;99.90;;;;;;5007821;28;20026;-51
2024/01/23 05:58:18;;;;;;;25.77;5.85;;;6.00;99.90;;;;;;5007252;28;20023;-47
2024/01/23 06:00:44;;;;;;;16.58;2.95;;;6.00;99.90;;;;;;5003913;28;20037;-49
2024/01/23 06:03:10;;;;;;;17.80;4.70;;;5.90;99.90;;;;;;5003814;28;20041;-49
2024/01/23 06:05:35;;;;;;;21.63;3.90;;;6.00;99.90;;;;;;5003912;28;20044;-50
2024/01/23 06:08:01;;;;;;;24.95;4.65;;;5.90;99.90;;;;;;5005616;28;20137;-51
2024/01/23 06:10:27;;;;;;;15.98;2.38;;;5.90;99.90;;;;;;5010576;28;20124;-49
2024/01/23 06:12:52;;;;;;;26.45;5.07;;;5.90;99.90;;;;;;5009742;28;20040;-51
2024/01/23 06:15:18;;;;;;;28.25;4.07;;;5.90;99.90;;;;;;5010088;28;20076;-49
2024/01/23 06:17:44;;;;;;;17.88;3.13;;;5.90;99.90;;;;;;5009890;28;20095;-49
2024/01/23 06:20:12;;;;;;;15.23;2.25;;;5.80;99.90;;;;;;5006193;28;20034;-48
2024/01/23 06:22:38;;;;;;;21.73;3.72;;;5.90;99.90;;;;;;5006452;28;20103;-50
2024/01/23 06:25:09;;;;;;;20.42;4.03;;;5.90;99.90;;;;;;5008342;28;20084;-49
2024/01/23 06:27:37;;;;;;;22.55;2.92;;;5.90;99.90;;;;;;5005871;28;20558;-48
2024/01/23 06:30:04;;;;;;;16.42;3.20;;;5.80;99.90;;;;;;5008708;28;20028;-49
2024/01/23 06:32:30;;;;;;;19.33;2.83;;;5.80;99.90;;;;;;5010370;28;20380;-50
2024/01/23 06:34:56;;;;;;;19.13;3.05;;;5.70;99.90;;;;;;5007469;28;20040;-49
2024/01/23 06:37:21;;;;;;;26.02;2.60;;;5.70;99.90;;;;;;5003733;28;20468;-47
2024/01/23 06:39:47;;;;;;;11.48;1.95;;;5.70;99.90;;;;;;5006628;28;20029;-49
2024/01/23 06:42:13;;;;;;;20.77;2.65;;;5.60;99.90;;;;;;5007658;28;20066;-49
2024/01/23 06:44:41;;;;;;;11.82;3.28;;;5.70;99.90;;;;;;5005095;28;20022;-50
2024/01/23 06:47:07;;;;;;;21.38;4.13;;;5.60;99.90;;;;;;5002294;28;20224;-50
2024/01/23 06:49:32;;;;;;;14.75;2.22;;;5.70;99.90;;;;;;5007420;28;20116;-49
2024/01/23 06:51:58;;;;;;;23.90;3.63;;;5.70;99.90;;;;;;5005357;28;20041;-49
2024/01/23 06:54:24;;;;;;;16.80;4.32;;;5.60;99.90;;;;;;5007143;28;20038;-51
2024/01/23 06:56:49;;;;;;;16.92;2.15;;;5.60;99.90;;;;;;5007046;28;20432;-52
2024/01/23 06:59:18;;;;;;;29.05;2.80;;;5.50;99.90;;;;;;5006381;28;20057;-51
2024/01/23 07:01:43;;;;;;;18.52;3.70;;;5.50;99.90;;;;;;5006551;28;20401;-48
2024/01/23 07:04:09;;;;;;;19.52;4.28;;;5.50;99.90;;;;;;5000278;28;20022;-49
2024/01/23 07:06:35;;;;;;;22.23;3.20;;;5.50;99.90;;;;;;5003948;28;20038;-48
2024/01/23 07:09:01;;;;;;;22.27;3.50;;;5.40;99.90;;;;;;5004639;28;20026;-51
2024/01/23 07:11:27;;;;;;;17.60;2.80;;;5.40;99.90;;;;;;5021563;23;20045;-53
2024/01/23 07:13:53;;;;;;;13.95;2.90;;;5.30;99.90;;;;;;5005455;28;20034;-55
2024/01/23 07:16:19;;;;;;;20.23;3.35;;;5.20;99.90;;;;;;5005706;28;20087;-56
2024/01/23 07:18:44;;;;;;;19.33;2.53;;;5.20;99.90;;;;;;5007576;28;20041;-54
2024/01/23 07:21:10;;;;;;;15.32;3.58;;;5.20;99.90;;;;;;5009743;28;20034;-55
2024/01/23 07:23:36;;;;;;;24.50;3.15;;;5.00;99.90;;;;;;5008751;28;20030;-55
2024/01/23 07:26:02;;;;;;;18.60;2.35;;;5.00;99.90;;;;;;5010759;28;20122;-56
2024/01/23 07:28:28;;;;;;;26.50;7.35;;;4.90;99.90;;;;;;5008604;28;20060;-54
2024/01/23 07:30:54;;;;;;;30.85;8.48;;;4.90;99.90;;;;;;5009507;28;20562;-53
2024/01/23 07:33:19;;;;;;;22.95;5.57;;;4.90;99.90;;;;;;5012459;28;20054;-55
2024/01/23 07:35:45;;;;;;;25.48;2.80;;;5.00;99.90;;;;;;5008830;28;20038;-54
2024/01/23 07:38:11;;;;;;;19.70;3.72;;;5.00;99.90;;;;;;5008833;28;20514;-54
2024/01/23 07:40:40;;;;;;;19.13;3.08;;;5.00;99.90;;;;;;5011191;28;20104;-56
2024/01/23 07:43:06;;;;;;;18.70;2.03;;;5.00;99.90;;;;;;5007711;28;20081;-55
2024/01/23 07:45:32;;;;;;;20.40;3.28;;;5.00;99.90;;;;;;5012128;28;20026;-55
2024/01/23 07:47:59;;;;;;;19.13;3.35;;;5.10;99.90;;;;;;5011997;28;20041;-56
2024/01/23 07:50:24;;;;;;;20.92;4.78;;;5.10;99.90;;;;;;5012919;28;20104;-55
2024/01/23 07:52:50;;;;;;;24.15;4.38;;;5.10;99.90;;;;;;5012627;28;20152;-55
2024/01/23 07:55:16;;;;;;;25.42;3.92;;;5.10;99.90;;;;;;5008168;28;20388;-52
2024/01/23 07:57:41;;;;;;;24.27;2.25;;;5.10;99.90;;;;;;5010172;28;20029;-55
2024/01/23 08:00:07;;;;;;;15.48;2.80;;;5.10;99.90;;;;;;5009472;28;20050;-54
2024/01/23 08:02:33;;;;;;;23.63;3.28;;;5.10;99.90;;;;;;5005080;28;20030;-56
2024/01/23 08:05:00;;;;;;;14.63;3.25;;;5.10;99.90;;;;;;5014634;28;20503;-56
2024/01/23 08:07:25;;;;;;;29.10;3.97;;;5.10;99.90;;;;;;5012578;28;20551;-55
2024/01/23 08:09:51;;;;;;;14.57;2.42;;;5.00;99.90;;;;;;5012955;28;20022;-55
2024/01/23 08:12:17;;;;;;;14.63;2.90;;;5.00;99.90;;;;;;5014094;28;20390;-54
2024/01/23 08:14:43;;;;;;;19.83;2.72;;;5.10;99.90;;;;;;5013859;28;20034;-54
2024/01/23 08:17:10;;;;;;;16.42;4.30;;;5.10;99.90;;;;;;5014415;28;20068;-52
2024/01/23 08:19:39;;;;;;;26.05;4.05;;;5.10;99.90;;;;;;5010343;28;20631;-55
2024/01/23 08:22:05;;;;;;;24.77;3.83;;;5.10;99.90;;;;;;5012868;28;20025;-56
2024/01/23 08:24:30;;;;;;;23.00;3.92;;;5.10;99.90;;;;;;5010525;28;20045;-55
2024/01/23 08:26:56;;;;;;;15.13;3.03;;;5.20;99.90;;;;;;5013997;28;20040;-55
2024/01/23 08:29:21;;;;;;;26.08;3.03;;;5.30;99.90;;;;;;5015864;28;20117;-56
2024/01/23 08:31:47;;;;;;;22.17;3.60;;;5.40;99.90;;;;;;5016749;28;20034;-55
2024/01/23 08:34:13;;;;;;;20.33;4.90;;;5.40;99.90;;;;;;5012353;28;20403;-53
2024/01/23 08:36:39;;;;;;;17.90;3.63;;;5.50;99.90;;;;;;5013404;28;20094;-54
2024/01/23 08:39:04;;;;;;;23.48;5.05;;;5.50;99.90;;;;;;5010438;28;20108;-54
2024/01/23 08:41:30;;;;;;;21.17;5.60;;;5.40;99.90;;;;;;5010911;28;20034;-55
2024/01/23 08:43:55;;;;;;;20.10;3.85;;;5.50;99.90;;;;;;5005062;28;20383;-55
2024/01/23 08:46:21;;;;;;;22.05;3.67;;;5.50;99.90;;;;;;5008016;28;20037;-56
2024/01/23 08:48:47;;;;;;;19.83;3.85;;;5.60;99.90;;;;;;5014028;28;20038;-56
2024/01/23 08:51:13;;;;;;;19.92;3.75;;;5.60;99.90;;;;;;5009154;28;20522;-54
2024/01/23 08:53:38;;;;;;;31.15;4.60;;;5.70;99.90;;;;;;5013463;28;20026;-55
2024/01/23 08:56:04;;;;;;;24.55;3.80;;;5.70;99.90;;;;;;5012894;28;20026;-55
2024/01/23 08:58:30;;;;;;;19.77;2.88;;;5.80;99.90;;;;;;5010608;28;20113;-55
2024/01/23 09:00:55;;;;;;;9.05;2.17;;;5.80;99.90;;;;;;5014897;28;20061;-54
2024/01/23 09:03:21;;;;;;;31.75;3.80;;;5.90;99.90;;;;;;5013812;28;20029;-56
2024/01/23 09:05:48;;;;;;;22.50;4.65;;;5.90;99.90;;;;;;5012195;28;20452;-55
2024/01/23 09:08:13;;;;;;;21.58;3.97;;;6.00;99.90;;;;;;5010310;28;20077;-55
2024/01/23 09:10:39;;;;;;;20.60;3.22;;;6.00;99.90;;;;;;5012764;28;20022;-55
2024/01/23 09:13:05;;;;;;;16.05;4.38;;;6.00;99.90;;;;;;5009463;28;20040;-54
2024/01/23 09:15:31;;;;;;;22.85;3.40;;;6.10;99.90;;;;;;5010549;28;20034;-54
2024/01/23 09:17:57;;;;;;;27.65;4.82;;;6.20;99.90;;;;;;5013380;28;20065;-55
2024/01/23 09:20:23;;;;;;;30.65;7.35;;;6.20;99.90;;;;;;5013992;28;20068;-55
2024/01/23 09:22:50;;;;;;;19.67;3.88;;;6.20;99.90;;;;;;5007603;28;20033;-54
2024/01/23 09:25:17;;;;;;;28.75;3.95;;;6.30;99.90;;;;;;5009428;28;20045;-55
2024/01/23 09:27:43;;;;;;;28.25;4.75;;;6.30;99.90;;;;;;5007488;28;20041;-56
2024/01/23 09:30:09;;;;;;;27.23;4.38;;;6.30;99.90;;;;;;5011278;28;20026;-55
2024/01/23 09:32:34;;;;;;;11.77;3.92;;;6.40;99.90;;;;;;5008118;28;20077;-53
2024/01/23 09:35:00;;;;;;;25.27;5.05;;;6.40;99.90;;;;;;5011123;28;20025;-53
2024/01/23 09:37:25;;;;;;;18.63;4.03;;;6.50;99.90;;;;;;5012640;28;20026;-56
2024/01/23 09:39:52;;;;;;;22.67;3.83;;;6.50;99.90;;;;;;5013650;28;20042;-55
2024/01/23 09:42:20;;;;;;;24.98;4.03;;;6.60;99.90;;;;;;5009076;28;20033;-53
2024/01/23 09:44:47;;;;;;;19.65;3.83;;;6.70;99.90;;;;;;5014116;28;20834;-55
2024/01/23 09:47:12;;;;;;;34.63;6.47;;;6.80;99.90;;;;;;5010408;28;20025;-55
2024/01/23 09:49:38;;;;;;;18.75;3.78;;;6.80;99.90;;;;;;5007925;28;20035;-53
2024/01/23 09:52:05;;;;;;;23.88;3.65;;;6.90;99.90;;;;;;5013065;28;20030;-55
2024/01/23 09:54:31;;;;;;;26.20;4.38;;;7.00;99.90;;;;;;5012147;28;20462;-53
2024/01/23 09:57:01;;;;;;;24.27;4.78;;;7.20;99.90;;;;;;5008801;28;20053;-55
2024/01/23 09:59:27;;;;;;;30.73;4.30;;;7.30;99.90;;;;;;5010829;28;20069;-54
2024/01/23 10:01:56;;;;;;;18.08;3.53;;;7.20;99.90;;;;;;5013257;28;20053;-56
2024/01/23 10:04:22;;;;;;;17.70;4.40;;;7.30;99.90;;;;;;5007998;28;20646;-56
2024/01/23 10:06:48;;;;;;;25.92;5.35;;;7.30;99.90;;;;;;5005294;28;20029;-54
2024/01/23 10:09:14;;;;;;;42.05;11.95;;;7.40;99.90;;;;;;5006229;28;20054;-52
2024/01/23 10:11:41;;;;;;;29.88;5.80;;;7.50;99.90;;;;;;5005089;28;20574;-56
2024/01/23 10:14:07;;;;;;;32.05;5.25;;;7.60;99.90;;;;;;5008788;28;20469;-55
2024/01/23 10:16:33;;;;;;;24.27;4.43;;;7.70;99.90;;;;;;5010475;28;20095;-56
2024/01/23 10:18:59;;;;;;;22.23;4.07;;;7.80;99.90;;;;;;5008240;28;20028;-52
2024/01/23 10:21:25;;;;;;;13.80;2.58;;;7.90;99.90;;;;;;5009860;28;20395;-52
2024/01/23 10:23:52;;;;;;;22.70;2.53;;;7.90;99.90;;;;;;5012823;28;20025;-55
2024/01/23 10:26:19;;;;;;;26.30;3.67;;;8.00;99.90;;;;;;5004296;28;20587;-54
2024/01/23 10:28:45;;;;;;;17.70;5.07;;;7.90;99.90;;;;;;5011428;28;20515;-56
2024/01/23 10:31:12;;;;;;;17.88;3.42;;;7.90;99.90;;;;;;5013866;28;20480;-56
2024/01/23 10:33:38;;;;;;;19.33;4.10;;;7.90;99.90;;;;;;5010717;28;20034;-54
2024/01/23 10:36:10;;;;;;;22.02;3.67;;;7.80;99.90;;;;;;5011466;28;20036;-55
2024/01/23 10:38:36;;;;;;;23.20;2.78;;;7.70;99.90;;;;;;5010186;28;20030;-54
2024/01/23 10:41:06;;;;;;;19.85;2.55;;;7.60;99.90;;;;;;5008953;28;20388;-55
2024/01/23 10:43:33;;;;;;;24.42;3.15;;;7.70;99.90;;;;;;5013402;28;20101;-55
2024/01/23 10:46:02;;;;;;;20.02;2.92;;;7.70;99.90;;;;;;5005458;28;20022;-56
2024/01/23 10:48:29;;;;;;;13.90;2.92;;;7.70;99.90;;;;;;5009163;28;20077;-55
2024/01/23 10:51:01;;;;;;;18.58;3.20;;;7.80;99.90;;;;;;5012878;28;20051;-54
2024/01/23 10:53:42;;;;;;;19.88;3.80;;;7.80;99.90;;;;;;5009557;28;20072;-55
2024/01/23 10:56:13;;;;;;;26.00;3.35;;;7.80;99.90;;;;;;5013236;28;20112;-56
2024/01/23 10:58:41;;;;;;;28.58;4.05;;;7.80;99.90;;;;;;5010308;28;20041;-55
2024/01/23 11:01:11;;;;;;;24.42;4.85;;;7.90;99.90;;;;;;5012460;28;20804;-55
2024/01/23 11:03:38;;;;;;;18.63;2.95;;;8.10;99.90;;;;;;5009448;28;20399;-56
2024/01/23 11:06:12;;;;;;;21.90;4.20;;;8.40;99.90;;;;;;5015116;28;20118;-56
2024/01/23 11:08:50;;;;;;;23.40;3.42;;;8.50;99.90;;;;;;5012423;28;20029;-55
2024/01/23 11:11:36;;;;;;;16.90;3.22;;;8.60;99.90;;;;;;5002421;28;20750;-55
2024/01/23 11:14:20;;;;;;;20.73;2.78;;;8.60;99.90;;;;;;5011035;28;20024;-53
2024/01/23 11:17:09;;;;;;;22.73;3.58;;;8.80;99.90;;;;;;5012876;28;20028;-56
2024/01/23 11:19:46;;;;;;;17.25;2.90;;;9.00;99.90;;;;;;5004417;28;20073;-53
2024/01/23 11:22:12;;;;;;;13.80;2.70;;;9.10;99.90;;;;;;5010093;28;20092;-56
2024/01/23 11:24:42;;;;;;;27.67;5.28;;;9.30;99.90;;;;;;5014116;28;20033;-56
2024/01/23 11:27:08;;;;;;;21.83;3.83;;;9.50;99.90;;;;;;5007313;28;20029;-56
2024/01/23 11:29:34;;;;;;;17.30;3.13;;;9.40;99.90;;;;;;5007152;28;20041;-53
2024/01/23 11:32:01;;;;;;;15.00;2.72;;;9.40;99.90;;;;;;5004975;28;20399;-54
2024/01/23 11:34:27;;;;;;;20.95;5.40;;;9.20;99.90;;;;;;5012306;28;20033;-56
2024/01/23 11:36:53;;;;;;;33.67;8.88;;;9.20;99.90;;;;;;5009635;28;20105;-56
2024/01/23 11:39:23;;;;;;;26.90;5.40;;;9.00;99.90;;;;;;5010165;28;20352;-55
2024/01/23 11:41:50;;;;;;;25.13;5.32;;;8.80;99.90;;;;;;5006550;28;20106;-54
2024/01/23 11:44:16;;;;;;;24.40;3.33;;;8.60;99.90;;;;;;5010235;28;20074;-55
2024/01/23 11:46:43;;;;;;;36.95;6.55;;;8.50;99.90;;;;;;5010249;28;20109;-56
2024/01/23 11:49:10;;;;;;;20.45;2.92;;;8.40;99.90;;;;;;5011372;28;20030;-53
2024/01/23 11:51:37;;;;;;;27.80;6.60;;;8.50;99.90;;;;;;5009137;28;20109;-55
2024/01/23 11:54:09;;;;;;;16.92;2.92;;;8.60;99.90;;;;;;5015377;28;20427;-57
2024/01/23 11:56:36;;;;;;;16.10;2.90;;;8.70;99.90;;;;;;5010194;28;20049;-55
2024/01/23 11:59:02;;;;;;;18.48;4.47;;;8.80;99.90;;;;;;5005586;28;20433;-53
2024/01/23 12:01:29;;;;;;;19.85;3.45;;;8.80;99.90;;;;;;5014378;28;20105;-53
2024/01/23 12:03:55;;;;;;;14.48;2.88;;;8.80;99.90;;;;;;5007690;28;20052;-54
2024/01/23 12:06:22;;;;;;;18.05;5.18;;;8.70;99.90;;;;;;5010994;28;20030;-51
2024/01/23 12:08:48;;;;;;;16.67;4.03;;;8.70;99.90;;;;;;5006570;28;20496;-55
2024/01/23 12:11:15;;;;;;;14.40;2.88;;;8.70;99.90;;;;;;5011309;28;20034;-55
2024/01/23 12:13:50;;;;;;;22.17;4.43;;;8.70;99.90;;;;;;5015229;28;20021;-55
2024/01/23 12:16:17;;;;;;;16.45;4.10;;;8.70;99.90;;;;;;5003772;28;20036;-54
2024/01/23 12:18:44;;;;;;;28.48;5.78;;;8.60;99.90;;;;;;5012055;28;20030;-55
2024/01/23 12:21:11;;;;;;;24.77;4.88;;;8.60;99.90;;;;;;5011143;28;20022;-54
2024/01/23 12:23:37;;;;;;;26.30;4.07;;;8.60;99.90;;;;;;5005587;28;20515;-55
2024/01/23 12:26:04;;;;;;;20.67;4.18;;;8.70;99.90;;;;;;5008060;28;20026;-55
2024/01/23 12:28:32;;;;;;;31.13;8.20;;;8.90;99.90;;;;;;5007514;28;20018;-56
2024/01/23 12:30:58;;;;;;;17.00;3.60;;;9.10;99.90;;;;;;5010486;28;20037;-55
2024/01/23 12:33:25;;;;;;;21.88;3.95;;;9.30;99.90;;;;;;5008213;28;21615;-56
2024/01/23 12:35:52;;;;;;;23.65;5.63;;;9.50;99.90;;;;;;5009978;28;20115;-54
2024/01/23 12:38:19;;;;;;;23.20;5.13;;;9.60;99.90;;;;;;5008149;28;20504;-56
2024/01/23 12:40:44;;;;;;;18.83;4.80;;;9.50;99.90;;;;;;5007446;28;20026;-54
2024/01/23 12:43:11;;;;;;;17.02;4.10;;;9.50;99.90;;;;;;5009317;28;20037;-54